sensor_id;sensor_type;location;lat;lon;timestamp;P1;durP1;ratioP1;P2;durP2;ratioP2
26050;SDS011;13825;53.496;10.020;2023-05-02T00:01:13;11.20;;;6.83;;
26050;SDS011;13825;53.496;10.020;2023-05-02T00:03:40;17.27;;;8.50;;
26050;SDS011;13825;53.496;10.020;2023-05-02T00:06:09;14.20;;;7.00;;
26050;SDS011;13825;53.496;10.020;2023-05-02T00:08:36;13.77;;;7.33;;
26050;SDS011;13825;53.496;10.020;2023-05-02T00:11:03;18.03;;;9.27;;
26050;SDS011;13825;53.496;10.020;2023-05-02T00:13:30;11.87;;;7.73;;
26050;SDS011;13825;53.496;10.020;2023-05-02T00:15:57;18.20;;;8.60;;
26050;SDS011;13825;53.496;10.020;2023-05-02T00:18:24;16.53;;;8.90;;
26050;SDS011;13825;53.496;10.020;2023-05-02T00:20:51;17.27;;;9.90;;
26050;SDS011;13825;53.496;10.020;2023-05-02T00:23:19;16.77;;;9.07;;
26050;SDS011;13825;53.496;10.020;2023-05-02T00:25:46;18.90;;;11.57;;
26050;SDS011;13825;53.496;10.020;2023-05-02T00:28:13;20.37;;;11.23;;
26050;SDS011;13825;53.496;10.020;2023-05-02T00:30:43;19.13;;;10.77;;
26050;SDS011;13825;53.496;10.020;2023-05-02T00:33:10;22.67;;;11.53;;
26050;SDS011;13825;53.496;10.020;2023-05-02T00:35:38;21.00;;;11.13;;
26050;SDS011;13825;53.496;10.020;2023-05-02T00:38:05;21.93;;;11.03;;
26050;SDS011;13825;53.496;10.020;2023-05-02T00:40:42;19.23;;;11.13;;
26050;SDS011;13825;53.496;10.020;2023-05-02T00:43:10;21.17;;;11.30;;
26050;SDS011;13825;53.496;10.020;2023-05-02T00:45:37;21.50;;;11.57;;
26050;SDS011;13825;53.496;10.020;2023-05-02T00:48:05;19.37;;;12.23;;
26050;SDS011;13825;53.496;10.020;2023-05-02T00:50:33;19.13;;;10.63;;
26050;SDS011;13825;53.496;10.020;2023-05-02T00:53:02;21.57;;;10.83;;
26050;SDS011;13825;53.496;10.020;2023-05-02T00:55:30;20.53;;;9.90;;
26050;SDS011;13825;53.496;10.020;2023-05-02T00:57:59;19.63;;;10.40;;
26050;SDS011;13825;53.496;10.020;2023-05-02T01:00:29;19.20;;;10.30;;
26050;SDS011;13825;53.496;10.020;2023-05-02T01:03:09;18.53;;;10.80;;
26050;SDS011;13825;53.496;10.020;2023-05-02T01:05:43;22.77;;;10.93;;
26050;SDS011;13825;53.496;10.020;2023-05-02T01:08:19;20.03;;;10.63;;
26050;SDS011;13825;53.496;10.020;2023-05-02T01:10:54;19.83;;;9.60;;
26050;SDS011;13825;53.496;10.020;2023-05-02T01:13:32;17.67;;;9.80;;
26050;SDS011;13825;53.496;10.020;2023-05-02T01:16:01;18.40;;;9.90;;
26050;SDS011;13825;53.496;10.020;2023-05-02T01:18:30;20.50;;;10.40;;
26050;SDS011;13825;53.496;10.020;2023-05-02T01:21:00;16.10;;;9.73;;
26050;SDS011;13825;53.496;10.020;2023-05-02T01:23:33;21.40;;;10.60;;
26050;SDS011;13825;53.496;10.020;2023-05-02T01:26:09;17.60;;;10.30;;
26050;SDS011;13825;53.496;10.020;2023-05-02T01:28:48;22.20;;;12.07;;
26050;SDS011;13825;53.496;10.020;2023-05-02T01:31:24;19.83;;;11.07;;
26050;SDS011;13825;53.496;10.020;2023-05-02T01:33:54;22.37;;;11.80;;
26050;SDS011;13825;53.496;10.020;2023-05-02T01:36:24;20.83;;;11.37;;
26050;SDS011;13825;53.496;10.020;2023-05-02T01:38:54;22.27;;;11.50;;
26050;SDS011;13825;53.496;10.020;2023-05-02T01:41:22;16.90;;;9.20;;
26050;SDS011;13825;53.496;10.020;2023-05-02T01:43:53;19.63;;;9.20;;
26050;SDS011;13825;53.496;10.020;2023-05-02T01:46:23;17.57;;;9.17;;
26050;SDS011;13825;53.496;10.020;2023-05-02T01:48:52;17.50;;;9.40;;
26050;SDS011;13825;53.496;10.020;2023-05-02T01:51:21;13.10;;;7.60;;
26050;SDS011;13825;53.496;10.020;2023-05-02T01:53:53;13.20;;;7.40;;
26050;SDS011;13825;53.496;10.020;2023-05-02T01:56:21;16.57;;;7.23;;
26050;SDS011;13825;53.496;10.020;2023-05-02T01:58:49;11.77;;;7.07;;
26050;SDS011;13825;53.496;10.020;2023-05-02T02:01:19;15.10;;;7.07;;
26050;SDS011;13825;53.496;10.020;2023-05-02T02:03:48;13.73;;;7.60;;
26050;SDS011;13825;53.496;10.020;2023-05-02T02:06:16;14.23;;;7.67;;
26050;SDS011;13825;53.496;10.020;2023-05-02T02:08:43;11.27;;;6.40;;
26050;SDS011;13825;53.496;10.020;2023-05-02T02:11:11;11.13;;;6.20;;
26050;SDS011;13825;53.496;10.020;2023-05-02T02:13:42;12.17;;;5.63;;
26050;SDS011;13825;53.496;10.020;2023-05-02T02:16:14;14.47;;;6.43;;
26050;SDS011;13825;53.496;10.020;2023-05-02T02:18:48;13.77;;;5.93;;
26050;SDS011;13825;53.496;10.020;2023-05-02T02:21:16;15.20;;;5.93;;
26050;SDS011;13825;53.496;10.020;2023-05-02T02:23:46;12.43;;;5.83;;
26050;SDS011;13825;53.496;10.020;2023-05-02T02:26:16;12.07;;;6.07;;
26050;SDS011;13825;53.496;10.020;2023-05-02T02:28:45;12.90;;;6.40;;
26050;SDS011;13825;53.496;10.020;2023-05-02T02:31:12;10.07;;;5.93;;
26050;SDS011;13825;53.496;10.020;2023-05-02T02:33:40;13.57;;;7.07;;
26050;SDS011;13825;53.496;10.020;2023-05-02T02:36:08;11.23;;;6.17;;
26050;SDS011;13825;53.496;10.020;2023-05-02T02:38:41;8.93;;;5.23;;
26050;SDS011;13825;53.496;10.020;2023-05-02T02:41:13;9.60;;;5.73;;
26050;SDS011;13825;53.496;10.020;2023-05-02T02:43:47;9.53;;;4.67;;
26050;SDS011;13825;53.496;10.020;2023-05-02T02:46:27;8.03;;;4.07;;
26050;SDS011;13825;53.496;10.020;2023-05-02T02:49:14;4.97;;;3.23;;
26050;SDS011;13825;53.496;10.020;2023-05-02T02:51:49;5.60;;;3.50;;
26050;SDS011;13825;53.496;10.020;2023-05-02T02:54:23;7.57;;;3.77;;
26050;SDS011;13825;53.496;10.020;2023-05-02T02:56:57;5.57;;;3.90;;
26050;SDS011;13825;53.496;10.020;2023-05-02T02:59:28;6.90;;;4.17;;
26050;SDS011;13825;53.496;10.020;2023-05-02T03:01:59;8.07;;;4.90;;
26050;SDS011;13825;53.496;10.020;2023-05-02T03:04:32;9.97;;;5.00;;
26050;SDS011;13825;53.496;10.020;2023-05-02T03:07:01;8.17;;;4.10;;
26050;SDS011;13825;53.496;10.020;2023-05-02T03:09:38;8.73;;;3.50;;
26050;SDS011;13825;53.496;10.020;2023-05-02T03:12:06;10.63;;;3.50;;
26050;SDS011;13825;53.496;10.020;2023-05-02T03:14:33;10.23;;;3.50;;
26050;SDS011;13825;53.496;10.020;2023-05-02T03:17:00;6.80;;;3.50;;
26050;SDS011;13825;53.496;10.020;2023-05-02T03:19:28;7.37;;;3.30;;
26050;SDS011;13825;53.496;10.020;2023-05-02T03:21:56;12.80;;;3.03;;
26050;SDS011;13825;53.496;10.020;2023-05-02T03:24:23;9.77;;;3.33;;
26050;SDS011;13825;53.496;10.020;2023-05-02T03:26:53;8.70;;;3.27;;
26050;SDS011;13825;53.496;10.020;2023-05-02T03:29:20;5.47;;;2.93;;
26050;SDS011;13825;53.496;10.020;2023-05-02T03:31:47;5.17;;;2.63;;
26050;SDS011;13825;53.496;10.020;2023-05-02T03:34:15;7.10;;;2.70;;
26050;SDS011;13825;53.496;10.020;2023-05-02T03:36:41;7.53;;;2.70;;
26050;SDS011;13825;53.496;10.020;2023-05-02T03:39:10;8.60;;;2.77;;
26050;SDS011;13825;53.496;10.020;2023-05-02T03:41:36;6.00;;;2.97;;
26050;SDS011;13825;53.496;10.020;2023-05-02T03:44:03;9.63;;;3.00;;
26050;SDS011;13825;53.496;10.020;2023-05-02T03:46:30;11.13;;;3.37;;
26050;SDS011;13825;53.496;10.020;2023-05-02T03:48:57;5.43;;;3.10;;
26050;SDS011;13825;53.496;10.020;2023-05-02T03:51:24;8.20;;;3.30;;
26050;SDS011;13825;53.496;10.020;2023-05-02T03:53:51;11.07;;;3.67;;
26050;SDS011;13825;53.496;10.020;2023-05-02T03:56:20;6.33;;;2.97;;
26050;SDS011;13825;53.496;10.020;2023-05-02T03:58:47;11.90;;;3.37;;
26050;SDS011;13825;53.496;10.020;2023-05-02T04:01:14;9.67;;;3.97;;
26050;SDS011;13825;53.496;10.020;2023-05-02T04:03:41;12.73;;;3.90;;
26050;SDS011;13825;53.496;10.020;2023-05-02T04:06:08;11.03;;;3.50;;
26050;SDS011;13825;53.496;10.020;2023-05-02T04:08:35;13.23;;;3.97;;
26050;SDS011;13825;53.496;10.020;2023-05-02T04:11:02;8.67;;;2.77;;
26050;SDS011;13825;53.496;10.020;2023-05-02T04:13:30;11.53;;;3.67;;
26050;SDS011;13825;53.496;10.020;2023-05-02T04:15:57;12.20;;;3.77;;
26050;SDS011;13825;53.496;10.020;2023-05-02T04:18:24;14.93;;;4.93;;
26050;SDS011;13825;53.496;10.020;2023-05-02T04:20:51;8.70;;;3.93;;
26050;SDS011;13825;53.496;10.020;2023-05-02T04:23:18;13.20;;;4.57;;
26050;SDS011;13825;53.496;10.020;2023-05-02T04:25:49;9.80;;;4.23;;
26050;SDS011;13825;53.496;10.020;2023-05-02T04:28:17;9.53;;;3.40;;
26050;SDS011;13825;53.496;10.020;2023-05-02T04:30:46;9.70;;;3.13;;
26050;SDS011;13825;53.496;10.020;2023-05-02T04:33:13;7.47;;;3.57;;
26050;SDS011;13825;53.496;10.020;2023-05-02T04:35:40;13.70;;;3.40;;
26050;SDS011;13825;53.496;10.020;2023-05-02T04:38:07;9.60;;;3.63;;
26050;SDS011;13825;53.496;10.020;2023-05-02T04:40:34;9.53;;;3.50;;
26050;SDS011;13825;53.496;10.020;2023-05-02T04:43:01;7.07;;;3.30;;
26050;SDS011;13825;53.496;10.020;2023-05-02T04:45:28;7.87;;;2.90;;
26050;SDS011;13825;53.496;10.020;2023-05-02T04:47:56;9.97;;;3.20;;
26050;SDS011;13825;53.496;10.020;2023-05-02T04:50:23;11.10;;;3.20;;
26050;SDS011;13825;53.496;10.020;2023-05-02T04:52:52;9.53;;;3.27;;
26050;SDS011;13825;53.496;10.020;2023-05-02T04:55:19;9.13;;;3.33;;
26050;SDS011;13825;53.496;10.020;2023-05-02T04:57:46;9.97;;;3.17;;
26050;SDS011;13825;53.496;10.020;2023-05-02T05:00:13;11.07;;;3.27;;
26050;SDS011;13825;53.496;10.020;2023-05-02T05:02:40;6.63;;;2.93;;
26050;SDS011;13825;53.496;10.020;2023-05-02T05:05:08;11.13;;;4.40;;
26050;SDS011;13825;53.496;10.020;2023-05-02T05:07:35;10.60;;;3.43;;
26050;SDS011;13825;53.496;10.020;2023-05-02T05:10:02;7.10;;;2.63;;
26050;SDS011;13825;53.496;10.020;2023-05-02T05:12:29;12.07;;;3.37;;
26050;SDS011;13825;53.496;10.020;2023-05-02T05:14:56;8.40;;;2.77;;
26050;SDS011;13825;53.496;10.020;2023-05-02T05:17:23;10.63;;;3.27;;
26050;SDS011;13825;53.496;10.020;2023-05-02T05:19:50;9.17;;;3.00;;
26050;SDS011;13825;53.496;10.020;2023-05-02T05:22:19;8.00;;;3.43;;
26050;SDS011;13825;53.496;10.020;2023-05-02T05:24:49;11.50;;;3.37;;
26050;SDS011;13825;53.496;10.020;2023-05-02T05:27:17;11.93;;;3.10;;
26050;SDS011;13825;53.496;10.020;2023-05-02T05:29:44;12.00;;;3.30;;
26050;SDS011;13825;53.496;10.020;2023-05-02T05:32:11;10.40;;;3.17;;
26050;SDS011;13825;53.496;10.020;2023-05-02T05:34:38;12.53;;;3.73;;
26050;SDS011;13825;53.496;10.020;2023-05-02T05:37:05;11.20;;;3.13;;
26050;SDS011;13825;53.496;10.020;2023-05-02T05:39:33;11.40;;;3.00;;
26050;SDS011;13825;53.496;10.020;2023-05-02T05:42:00;14.57;;;3.10;;
26050;SDS011;13825;53.496;10.020;2023-05-02T05:44:27;6.77;;;2.90;;
26050;SDS011;13825;53.496;10.020;2023-05-02T05:46:55;8.20;;;3.50;;
26050;SDS011;13825;53.496;10.020;2023-05-02T05:49:22;10.90;;;3.40;;
26050;SDS011;13825;53.496;10.020;2023-05-02T05:51:49;8.17;;;2.80;;
26050;SDS011;13825;53.496;10.020;2023-05-02T05:54:16;9.27;;;2.67;;
26050;SDS011;13825;53.496;10.020;2023-05-02T05:56:45;7.93;;;2.87;;
26050;SDS011;13825;53.496;10.020;2023-05-02T05:59:12;8.97;;;3.07;;
26050;SDS011;13825;53.496;10.020;2023-05-02T06:01:38;10.00;;;4.63;;
26050;SDS011;13825;53.496;10.020;2023-05-02T06:04:05;7.33;;;2.83;;
26050;SDS011;13825;53.496;10.020;2023-05-02T06:06:32;7.50;;;3.10;;
26050;SDS011;13825;53.496;10.020;2023-05-02T06:09:00;10.53;;;3.47;;
26050;SDS011;13825;53.496;10.020;2023-05-02T06:11:27;18.27;;;4.43;;
26050;SDS011;13825;53.496;10.020;2023-05-02T06:13:55;8.33;;;3.77;;
26050;SDS011;13825;53.496;10.020;2023-05-02T06:16:22;13.53;;;4.87;;
26050;SDS011;13825;53.496;10.020;2023-05-02T06:18:49;7.23;;;3.83;;
26050;SDS011;13825;53.496;10.020;2023-05-02T06:21:17;9.77;;;3.70;;
26050;SDS011;13825;53.496;10.020;2023-05-02T06:23:44;7.87;;;3.87;;
26050;SDS011;13825;53.496;10.020;2023-05-02T06:26:11;7.50;;;3.93;;
26050;SDS011;13825;53.496;10.020;2023-05-02T06:28:39;6.17;;;3.90;;
26050;SDS011;13825;53.496;10.020;2023-05-02T06:31:07;7.40;;;2.90;;
26050;SDS011;13825;53.496;10.020;2023-05-02T06:33:34;7.93;;;2.73;;
26050;SDS011;13825;53.496;10.020;2023-05-02T06:36:05;4.97;;;2.50;;
26050;SDS011;13825;53.496;10.020;2023-05-02T06:38:32;9.00;;;2.90;;
26050;SDS011;13825;53.496;10.020;2023-05-02T06:40:59;4.43;;;2.70;;
26050;SDS011;13825;53.496;10.020;2023-05-02T06:43:26;5.20;;;2.33;;
26050;SDS011;13825;53.496;10.020;2023-05-02T06:45:53;6.43;;;2.43;;
26050;SDS011;13825;53.496;10.020;2023-05-02T06:48:23;8.17;;;3.00;;
26050;SDS011;13825;53.496;10.020;2023-05-02T06:50:50;7.50;;;2.20;;
26050;SDS011;13825;53.496;10.020;2023-05-02T06:53:17;6.90;;;2.07;;
26050;SDS011;13825;53.496;10.020;2023-05-02T06:55:44;5.70;;;2.73;;
26050;SDS011;13825;53.496;10.020;2023-05-02T06:58:12;6.10;;;2.07;;
26050;SDS011;13825;53.496;10.020;2023-05-02T07:00:39;4.63;;;2.60;;
26050;SDS011;13825;53.496;10.020;2023-05-02T07:03:06;3.43;;;2.33;;
26050;SDS011;13825;53.496;10.020;2023-05-02T07:05:37;3.03;;;1.80;;
26050;SDS011;13825;53.496;10.020;2023-05-02T07:08:04;4.67;;;1.87;;
26050;SDS011;13825;53.496;10.020;2023-05-02T07:10:33;4.63;;;2.73;;
26050;SDS011;13825;53.496;10.020;2023-05-02T07:13:00;3.53;;;2.10;;
26050;SDS011;13825;53.496;10.020;2023-05-02T07:15:27;3.50;;;2.13;;
26050;SDS011;13825;53.496;10.020;2023-05-02T07:17:54;5.80;;;2.80;;
26050;SDS011;13825;53.496;10.020;2023-05-02T07:20:21;8.63;;;2.50;;
26050;SDS011;13825;53.496;10.020;2023-05-02T07:22:49;4.27;;;2.50;;
26050;SDS011;13825;53.496;10.020;2023-05-02T07:25:16;7.03;;;2.53;;
26050;SDS011;13825;53.496;10.020;2023-05-02T07:27:43;4.17;;;2.57;;
26050;SDS011;13825;53.496;10.020;2023-05-02T07:30:10;5.80;;;2.53;;
26050;SDS011;13825;53.496;10.020;2023-05-02T07:32:38;5.27;;;2.90;;
26050;SDS011;13825;53.496;10.020;2023-05-02T07:35:05;3.40;;;2.00;;
26050;SDS011;13825;53.496;10.020;2023-05-02T07:37:32;4.03;;;2.13;;
26050;SDS011;13825;53.496;10.020;2023-05-02T07:40:01;2.20;;;2.00;;
26050;SDS011;13825;53.496;10.020;2023-05-02T07:42:29;8.03;;;2.00;;
26050;SDS011;13825;53.496;10.020;2023-05-02T07:44:57;4.07;;;2.73;;
26050;SDS011;13825;53.496;10.020;2023-05-02T07:47:24;7.00;;;2.33;;
26050;SDS011;13825;53.496;10.020;2023-05-02T07:49:51;5.27;;;2.13;;
26050;SDS011;13825;53.496;10.020;2023-05-02T07:52:19;5.57;;;2.57;;
26050;SDS011;13825;53.496;10.020;2023-05-02T07:54:46;3.03;;;2.07;;
26050;SDS011;13825;53.496;10.020;2023-05-02T07:57:15;3.40;;;2.40;;
26050;SDS011;13825;53.496;10.020;2023-05-02T07:59:42;4.60;;;2.50;;
26050;SDS011;13825;53.496;10.020;2023-05-02T08:02:09;3.70;;;2.40;;
26050;SDS011;13825;53.496;10.020;2023-05-02T08:04:37;4.57;;;2.40;;
26050;SDS011;13825;53.496;10.020;2023-05-02T08:07:04;3.13;;;2.07;;
26050;SDS011;13825;53.496;10.020;2023-05-02T08:09:32;5.33;;;2.30;;
26050;SDS011;13825;53.496;10.020;2023-05-02T08:11:59;7.43;;;2.83;;
26050;SDS011;13825;53.496;10.020;2023-05-02T08:14:28;4.23;;;2.33;;
26050;SDS011;13825;53.496;10.020;2023-05-02T08:16:55;5.07;;;2.30;;
26050;SDS011;13825;53.496;10.020;2023-05-02T08:19:22;8.40;;;2.50;;
26050;SDS011;13825;53.496;10.020;2023-05-02T08:21:49;7.37;;;3.17;;
26050;SDS011;13825;53.496;10.020;2023-05-02T08:24:16;4.70;;;2.60;;
26050;SDS011;13825;53.496;10.020;2023-05-02T08:26:43;2.60;;;1.80;;
26050;SDS011;13825;53.496;10.020;2023-05-02T08:29:10;3.83;;;2.17;;
26050;SDS011;13825;53.496;10.020;2023-05-02T08:31:38;3.40;;;2.00;;
26050;SDS011;13825;53.496;10.020;2023-05-02T08:34:05;3.37;;;2.07;;
26050;SDS011;13825;53.496;10.020;2023-05-02T08:36:32;4.57;;;2.40;;
26050;SDS011;13825;53.496;10.020;2023-05-02T08:39:02;5.43;;;2.17;;
26050;SDS011;13825;53.496;10.020;2023-05-02T08:41:32;4.87;;;2.10;;
26050;SDS011;13825;53.496;10.020;2023-05-02T08:43:59;5.70;;;2.50;;
26050;SDS011;13825;53.496;10.020;2023-05-02T08:46:27;5.17;;;1.70;;
26050;SDS011;13825;53.496;10.020;2023-05-02T08:48:58;2.57;;;1.80;;
26050;SDS011;13825;53.496;10.020;2023-05-02T08:51:26;7.60;;;2.03;;
26050;SDS011;13825;53.496;10.020;2023-05-02T08:53:56;5.33;;;2.67;;
26050;SDS011;13825;53.496;10.020;2023-05-02T08:56:24;5.60;;;2.50;;
26050;SDS011;13825;53.496;10.020;2023-05-02T08:58:51;5.03;;;2.30;;
26050;SDS011;13825;53.496;10.020;2023-05-02T09:01:18;6.03;;;2.03;;
26050;SDS011;13825;53.496;10.020;2023-05-02T09:03:48;3.97;;;1.60;;
26050;SDS011;13825;53.496;10.020;2023-05-02T09:06:18;4.00;;;1.70;;
26050;SDS011;13825;53.496;10.020;2023-05-02T09:08:47;3.87;;;1.60;;
26050;SDS011;13825;53.496;10.020;2023-05-02T09:11:16;6.50;;;2.27;;
26050;SDS011;13825;53.496;10.020;2023-05-02T09:13:44;7.77;;;1.67;;
26050;SDS011;13825;53.496;10.020;2023-05-02T09:16:12;4.67;;;1.67;;
26050;SDS011;13825;53.496;10.020;2023-05-02T09:18:41;2.33;;;1.73;;
26050;SDS011;13825;53.496;10.020;2023-05-02T09:21:10;3.27;;;1.93;;
26050;SDS011;13825;53.496;10.020;2023-05-02T09:23:41;5.67;;;1.70;;
26050;SDS011;13825;53.496;10.020;2023-05-02T09:26:12;2.43;;;1.63;;
26050;SDS011;13825;53.496;10.020;2023-05-02T09:28:41;3.17;;;1.67;;
26050;SDS011;13825;53.496;10.020;2023-05-02T09:31:09;1.40;;;1.30;;
26050;SDS011;13825;53.496;10.020;2023-05-02T09:33:38;4.77;;;1.40;;
26050;SDS011;13825;53.496;10.020;2023-05-02T09:36:06;2.27;;;1.40;;
26050;SDS011;13825;53.496;10.020;2023-05-02T09:38:33;3.43;;;1.43;;
26050;SDS011;13825;53.496;10.020;2023-05-02T09:41:05;2.47;;;1.30;;
26050;SDS011;13825;53.496;10.020;2023-05-02T09:43:32;4.87;;;1.70;;
26050;SDS011;13825;53.496;10.020;2023-05-02T09:45:59;2.83;;;1.50;;
26050;SDS011;13825;53.496;10.020;2023-05-02T09:48:28;1.90;;;1.33;;
26050;SDS011;13825;53.496;10.020;2023-05-02T09:50:56;1.93;;;1.33;;
26050;SDS011;13825;53.496;10.020;2023-05-02T09:53:23;2.97;;;1.60;;
26050;SDS011;13825;53.496;10.020;2023-05-02T09:55:58;1.17;;;1.00;;
26050;SDS011;13825;53.496;10.020;2023-05-02T09:58:30;3.00;;;1.40;;
26050;SDS011;13825;53.496;10.020;2023-05-02T10:00:57;3.50;;;1.30;;
26050;SDS011;13825;53.496;10.020;2023-05-02T10:03:25;2.93;;;1.60;;
26050;SDS011;13825;53.496;10.020;2023-05-02T10:05:53;3.47;;;1.20;;
26050;SDS011;13825;53.496;10.020;2023-05-02T10:08:21;3.13;;;1.77;;
26050;SDS011;13825;53.496;10.020;2023-05-02T10:10:51;3.00;;;1.30;;
26050;SDS011;13825;53.496;10.020;2023-05-02T10:13:20;6.50;;;1.53;;
26050;SDS011;13825;53.496;10.020;2023-05-02T10:15:58;1.63;;;1.30;;
26050;SDS011;13825;53.496;10.020;2023-05-02T10:18:31;2.67;;;1.20;;
26050;SDS011;13825;53.496;10.020;2023-05-02T10:21:04;3.57;;;1.60;;
26050;SDS011;13825;53.496;10.020;2023-05-02T10:23:37;2.17;;;1.20;;
26050;SDS011;13825;53.496;10.020;2023-05-02T10:26:07;4.13;;;1.10;;
26050;SDS011;13825;53.496;10.020;2023-05-02T10:28:36;4.37;;;1.50;;
26050;SDS011;13825;53.496;10.020;2023-05-02T10:31:06;3.57;;;1.30;;
26050;SDS011;13825;53.496;10.020;2023-05-02T10:33:35;3.27;;;1.10;;
26050;SDS011;13825;53.496;10.020;2023-05-02T10:36:03;2.87;;;1.20;;
26050;SDS011;13825;53.496;10.020;2023-05-02T10:38:32;3.53;;;1.20;;
26050;SDS011;13825;53.496;10.020;2023-05-02T10:41:02;3.03;;;1.53;;
26050;SDS011;13825;53.496;10.020;2023-05-02T10:43:34;2.67;;;1.30;;
26050;SDS011;13825;53.496;10.020;2023-05-02T10:46:02;3.20;;;1.53;;
26050;SDS011;13825;53.496;10.020;2023-05-02T10:49:00;3.80;;;1.27;;
26050;SDS011;13825;53.496;10.020;2023-05-02T10:51:28;4.40;;;1.33;;
26050;SDS011;13825;53.496;10.020;2023-05-02T10:57:05;4.30;;;1.60;;
26050;SDS011;13825;53.496;10.020;2023-05-02T10:59:34;3.13;;;1.30;;
26050;SDS011;13825;53.496;10.020;2023-05-02T11:02:02;4.50;;;2.00;;
26050;SDS011;13825;53.496;10.020;2023-05-02T11:07:28;2.53;;;1.63;;
26050;SDS011;13825;53.496;10.020;2023-05-02T11:12:55;4.83;;;1.40;;
26050;SDS011;13825;53.496;10.020;2023-05-02T11:18:19;2.67;;;1.37;;
26050;SDS011;13825;53.496;10.020;2023-05-02T11:20:48;2.00;;;1.60;;
26050;SDS011;13825;53.496;10.020;2023-05-02T11:23:19;3.43;;;1.50;;
26050;SDS011;13825;53.496;10.020;2023-05-02T11:25:53;2.50;;;1.60;;
26050;SDS011;13825;53.496;10.020;2023-05-02T11:34:10;3.03;;;1.57;;
26050;SDS011;13825;53.496;10.020;2023-05-02T11:36:38;2.87;;;1.53;;
26050;SDS011;13825;53.496;10.020;2023-05-02T11:39:16;2.07;;;1.43;;
26050;SDS011;13825;53.496;10.020;2023-05-02T11:41:44;2.47;;;1.47;;
26050;SDS011;13825;53.496;10.020;2023-05-02T11:44:12;2.70;;;1.43;;
26050;SDS011;13825;53.496;10.020;2023-05-02T11:46:40;5.47;;;1.53;;
26050;SDS011;13825;53.496;10.020;2023-05-02T11:49:07;1.93;;;1.50;;
26050;SDS011;13825;53.496;10.020;2023-05-02T11:51:38;3.20;;;1.50;;
26050;SDS011;13825;53.496;10.020;2023-05-02T11:54:05;6.20;;;1.80;;
26050;SDS011;13825;53.496;10.020;2023-05-02T11:56:34;4.50;;;1.40;;
26050;SDS011;13825;53.496;10.020;2023-05-02T11:59:01;2.70;;;1.53;;
26050;SDS011;13825;53.496;10.020;2023-05-02T12:01:31;2.13;;;1.30;;
26050;SDS011;13825;53.496;10.020;2023-05-02T12:04:01;1.80;;;1.13;;
26050;SDS011;13825;53.496;10.020;2023-05-02T12:06:29;1.47;;;1.00;;
26050;SDS011;13825;53.496;10.020;2023-05-02T12:09:06;1.33;;;1.20;;
26050;SDS011;13825;53.496;10.020;2023-05-02T12:11:34;2.20;;;1.17;;
26050;SDS011;13825;53.496;10.020;2023-05-02T12:14:02;4.97;;;1.30;;
26050;SDS011;13825;53.496;10.020;2023-05-02T12:16:30;1.73;;;1.13;;
26050;SDS011;13825;53.496;10.020;2023-05-02T12:18:57;2.67;;;1.30;;
26050;SDS011;13825;53.496;10.020;2023-05-02T12:21:25;1.63;;;1.40;;
26050;SDS011;13825;53.496;10.020;2023-05-02T12:23:53;4.37;;;1.53;;
26050;SDS011;13825;53.496;10.020;2023-05-02T12:26:22;3.23;;;1.30;;
26050;SDS011;13825;53.496;10.020;2023-05-02T12:28:53;3.67;;;1.30;;
26050;SDS011;13825;53.496;10.020;2023-05-02T12:31:22;1.60;;;1.40;;
26050;SDS011;13825;53.496;10.020;2023-05-02T12:33:49;3.87;;;1.60;;
26050;SDS011;13825;53.496;10.020;2023-05-02T12:36:19;5.87;;;1.50;;
26050;SDS011;13825;53.496;10.020;2023-05-02T12:38:50;4.03;;;1.30;;
26050;SDS011;13825;53.496;10.020;2023-05-02T12:41:18;3.97;;;1.57;;
26050;SDS011;13825;53.496;10.020;2023-05-02T12:43:56;3.27;;;1.37;;
26050;SDS011;13825;53.496;10.020;2023-05-02T12:46:24;5.87;;;1.50;;
26050;SDS011;13825;53.496;10.020;2023-05-02T12:49:00;4.90;;;1.57;;
26050;SDS011;13825;53.496;10.020;2023-05-02T12:51:27;1.77;;;1.20;;
26050;SDS011;13825;53.496;10.020;2023-05-02T12:53:55;2.53;;;1.40;;
26050;SDS011;13825;53.496;10.020;2023-05-02T12:56:22;2.23;;;1.30;;
26050;SDS011;13825;53.496;10.020;2023-05-02T12:58:53;1.70;;;1.00;;
26050;SDS011;13825;53.496;10.020;2023-05-02T13:01:20;2.37;;;1.20;;
26050;SDS011;13825;53.496;10.020;2023-05-02T13:03:49;2.17;;;1.27;;
26050;SDS011;13825;53.496;10.020;2023-05-02T13:06:16;2.83;;;1.40;;
26050;SDS011;13825;53.496;10.020;2023-05-02T13:08:43;1.50;;;1.17;;
26050;SDS011;13825;53.496;10.020;2023-05-02T13:11:10;3.00;;;1.27;;
26050;SDS011;13825;53.496;10.020;2023-05-02T13:13:37;3.80;;;1.30;;
26050;SDS011;13825;53.496;10.020;2023-05-02T13:16:06;2.63;;;1.30;;
26050;SDS011;13825;53.496;10.020;2023-05-02T13:18:33;3.47;;;1.60;;
26050;SDS011;13825;53.496;10.020;2023-05-02T13:21:00;3.60;;;1.20;;
26050;SDS011;13825;53.496;10.020;2023-05-02T13:23:28;3.07;;;1.50;;
26050;SDS011;13825;53.496;10.020;2023-05-02T13:25:55;2.70;;;1.30;;
26050;SDS011;13825;53.496;10.020;2023-05-02T13:28:22;1.33;;;1.23;;
26050;SDS011;13825;53.496;10.020;2023-05-02T13:30:49;1.40;;;1.20;;
26050;SDS011;13825;53.496;10.020;2023-05-02T13:33:18;4.90;;;1.80;;
26050;SDS011;13825;53.496;10.020;2023-05-02T13:35:45;1.77;;;1.20;;
26050;SDS011;13825;53.496;10.020;2023-05-02T13:38:11;2.77;;;1.20;;
26050;SDS011;13825;53.496;10.020;2023-05-02T13:40:38;2.80;;;1.80;;
26050;SDS011;13825;53.496;10.020;2023-05-02T13:43:05;5.37;;;1.40;;
26050;SDS011;13825;53.496;10.020;2023-05-02T13:45:32;2.27;;;1.33;;
26050;SDS011;13825;53.496;10.020;2023-05-02T13:47:59;5.40;;;1.90;;
26050;SDS011;13825;53.496;10.020;2023-05-02T13:50:27;4.63;;;1.57;;
26050;SDS011;13825;53.496;10.020;2023-05-02T13:52:54;2.13;;;1.40;;
26050;SDS011;13825;53.496;10.020;2023-05-02T13:55:23;4.10;;;1.90;;
26050;SDS011;13825;53.496;10.020;2023-05-02T13:57:50;1.93;;;1.23;;
26050;SDS011;13825;53.496;10.020;2023-05-02T14:00:17;1.87;;;1.53;;
26050;SDS011;13825;53.496;10.020;2023-05-02T14:02:45;1.83;;;1.60;;
26050;SDS011;13825;53.496;10.020;2023-05-02T14:05:12;3.30;;;1.97;;
26050;SDS011;13825;53.496;10.020;2023-05-02T14:07:40;1.70;;;1.50;;
26050;SDS011;13825;53.496;10.020;2023-05-02T14:10:08;2.67;;;1.40;;
26050;SDS011;13825;53.496;10.020;2023-05-02T14:12:35;3.17;;;1.40;;
26050;SDS011;13825;53.496;10.020;2023-05-02T14:15:02;2.97;;;1.67;;
26050;SDS011;13825;53.496;10.020;2023-05-02T14:17:30;3.30;;;1.30;;
26050;SDS011;13825;53.496;10.020;2023-05-02T14:19:57;3.63;;;1.40;;
26050;SDS011;13825;53.496;10.020;2023-05-02T14:22:24;2.37;;;1.53;;
26050;SDS011;13825;53.496;10.020;2023-05-02T14:24:52;3.90;;;1.77;;
26050;SDS011;13825;53.496;10.020;2023-05-02T14:27:19;3.20;;;1.73;;
26050;SDS011;13825;53.496;10.020;2023-05-02T14:29:47;3.53;;;2.30;;
26050;SDS011;13825;53.496;10.020;2023-05-02T14:32:14;6.67;;;1.87;;
26050;SDS011;13825;53.496;10.020;2023-05-02T14:34:41;2.60;;;1.40;;
26050;SDS011;13825;53.496;10.020;2023-05-02T14:37:08;4.60;;;1.40;;
26050;SDS011;13825;53.496;10.020;2023-05-02T14:39:35;2.70;;;1.10;;
26050;SDS011;13825;53.496;10.020;2023-05-02T14:42:04;3.57;;;1.93;;
26050;SDS011;13825;53.496;10.020;2023-05-02T14:44:31;1.93;;;1.43;;
26050;SDS011;13825;53.496;10.020;2023-05-02T14:46:58;2.33;;;1.30;;
26050;SDS011;13825;53.496;10.020;2023-05-02T14:49:26;3.03;;;1.27;;
26050;SDS011;13825;53.496;10.020;2023-05-02T14:51:53;3.23;;;1.30;;
26050;SDS011;13825;53.496;10.020;2023-05-02T14:54:24;3.30;;;1.50;;
26050;SDS011;13825;53.496;10.020;2023-05-02T14:56:52;4.70;;;1.40;;